Aviation Digital Data Service (ADDS)

Output produced by METARs form (1210 UTC 19 January 2019)
found at http://www.aviationweather.gov/metar/data/
 
Forecast for: VTCL (LAMPANG , TH)
Text: TAF VTCL 191100Z 1912/2012 30005KT 9999 FEW030
Forecast period: 1200 UTC 19 January 2019 to 1200 UTC 20 January 2019
Forecast type: FROM: standard forecast or significant change
Winds: from the WNW (300 degrees) at 6 MPH (5 knots; 2.6 m/s)
Visibility: 6 or more miles 10+ km)
Ceiling: at least 12,000 feet AGL
Clouds: few clouds at 3000 feet AGL
Weather: no significant weather forecast for this period